createdAt,value
2018-07-27T00:01:43.954Z,23.07
2018-07-27T00:04:24.163Z,22.94
2018-07-27T00:07:01.929Z,22.77
2018-07-27T00:09:43.010Z,22.74
2018-07-27T00:12:29.545Z,22.84
2018-07-27T00:15:11.438Z,22.67
2018-07-27T00:23:09.460Z,23.08
2018-07-27T00:25:51.770Z,22.93
2018-07-27T00:28:33.692Z,22.66
2018-07-27T00:34:16.436Z,22.60
2018-07-27T00:37:03.604Z,22.30
2018-07-27T00:39:46.533Z,22.24
2018-07-27T00:42:26.292Z,22.44
2018-07-27T00:47:46.131Z,22.25
2018-07-27T00:53:57.346Z,22.43
2018-07-27T00:56:35.200Z,22.03
2018-07-27T00:59:16.370Z,22.08
2018-07-27T01:04:56.536Z,22.32
2018-07-27T01:07:47.781Z,22.08
2018-07-27T01:10:39.124Z,22.32
2018-07-27T01:13:32.231Z,22.02
2018-07-27T01:16:21.568Z,22.19
2018-07-27T01:18:51.896Z,22.28
2018-07-27T01:21:23.873Z,22.01
2018-07-27T01:23:57.727Z,21.86
2018-07-27T01:32:53.076Z,21.41
2018-07-27T01:35:30.706Z,21.27
2018-07-27T01:38:22.744Z,21.51
2018-07-27T01:40:57.223Z,21.66
2018-07-27T01:43:36.904Z,21.47
2018-07-27T01:46:28.029Z,21.56
2018-07-27T01:49:03.018Z,21.48
2018-07-27T01:51:41.938Z,21.43
2018-07-27T01:54:22.886Z,21.41
2018-07-27T01:57:03.004Z,21.31
2018-07-27T01:59:43.019Z,21.35
2018-07-27T02:02:16.348Z,21.35
2018-07-27T02:04:53.210Z,21.20
2018-07-27T02:07:39.385Z,21.09
2018-07-27T02:10:22.284Z,20.90
2018-07-27T02:13:03.696Z,21.06
2018-07-27T02:15:44.336Z,20.82
2018-07-27T02:18:23.744Z,21.00
2018-07-27T02:21:11.706Z,20.96
2018-07-27T02:23:52.136Z,21.28
2018-07-27T02:26:31.623Z,21.25
2018-07-27T02:29:10.243Z,21.50
2018-07-27T02:31:47.050Z,21.31
2018-07-27T02:34:30.491Z,21.24
2018-07-27T02:37:15.722Z,21.23
2018-07-27T02:39:52.634Z,21.18
2018-07-27T02:42:33.592Z,21.01
2018-07-27T02:45:12.285Z,21.05
2018-07-27T02:47:53.588Z,21.10
2018-07-27T02:50:33.980Z,20.83
2018-07-27T02:53:12.360Z,20.65
2018-07-27T02:55:58.123Z,20.71
2018-07-27T02:58:37.819Z,20.88
2018-07-27T03:01:14.901Z,20.90
2018-07-27T03:03:54.257Z,21.07
2018-07-27T03:06:30.197Z,21.21
2018-07-27T03:09:07.467Z,21.18
2018-07-27T03:11:43.738Z,21.20
2018-07-27T03:14:23.770Z,21.28
2018-07-27T03:17:00.129Z,21.16
2018-07-27T03:19:34.777Z,21.06
2018-07-27T03:22:06.004Z,21.00
2018-07-27T03:24:38.067Z,20.96
2018-07-27T03:27:09.827Z,20.85
2018-07-27T03:29:42.029Z,21.16
2018-07-27T03:32:14.761Z,21.13
2018-07-27T03:34:46.785Z,21.09
2018-07-27T03:37:18.087Z,21.33
2018-07-27T03:39:50.005Z,21.25
2018-07-27T03:42:23.096Z,20.95
2018-07-27T03:44:54.385Z,21.01
2018-07-27T03:47:26.927Z,20.97
2018-07-27T03:50:00.172Z,21.06
2018-07-27T03:52:32.233Z,21.23
2018-07-27T03:55:05.051Z,21.24
2018-07-27T03:57:36.914Z,21.10
2018-07-27T04:00:12.970Z,21.09
2018-07-27T04:02:44.928Z,21.15
2018-07-27T04:05:16.861Z,21.50
2018-07-27T04:07:47.932Z,21.79
2018-07-27T04:10:19.834Z,22.12
2018-07-27T04:12:52.897Z,22.31
2018-07-27T04:15:24.763Z,22.64
2018-07-27T04:17:59.849Z,22.57
2018-07-27T04:20:33.656Z,22.27
2018-07-27T04:23:05.312Z,22.20
2018-07-27T04:25:43.620Z,22.37
2018-07-27T04:28:16.940Z,22.21
2018-07-27T04:33:26.137Z,22.32
2018-07-27T04:36:00.182Z,22.61
2018-07-27T04:43:47.635Z,22.87
2018-07-27T04:46:19.768Z,23.00
2018-07-27T04:48:53.098Z,23.41
2018-07-27T04:51:24.536Z,23.86
2018-07-27T04:53:55.812Z,24.08
2018-07-27T04:56:28.492Z,24.48
2018-07-27T04:59:02.621Z,24.46
2018-07-27T05:01:38.975Z,24.45
2018-07-27T05:04:10.946Z,24.60
2018-07-27T05:06:43.982Z,24.59
2018-07-27T05:09:24.190Z,24.94
2018-07-27T05:11:55.054Z,25.19
2018-07-27T05:14:25.869Z,25.51
2018-07-27T05:16:55.720Z,25.61
2018-07-27T05:19:27.970Z,26.03
2018-07-27T05:22:00.088Z,26.03
2018-07-27T05:24:31.949Z,26.27
2018-07-27T05:27:03.876Z,26.34
2018-07-27T05:29:34.387Z,26.51
2018-07-27T05:32:06.087Z,26.66
2018-07-27T05:34:39.188Z,26.76
2018-07-27T05:37:11.333Z,26.64
2018-07-27T05:39:41.884Z,26.74
2018-07-27T05:42:13.714Z,26.94
2018-07-27T05:44:45.067Z,27.10
2018-07-27T05:47:15.851Z,27.20
2018-07-27T05:49:47.211Z,27.41
2018-07-27T05:52:19.054Z,27.49
2018-07-27T05:54:51.034Z,27.53
2018-07-27T05:57:22.800Z,27.36
2018-07-27T05:59:56.018Z,27.34
2018-07-27T06:02:26.847Z,27.49
2018-07-27T06:04:58.835Z,27.36
2018-07-27T06:07:30.767Z,27.72
2018-07-27T06:10:02.117Z,27.73
2018-07-27T06:12:33.018Z,27.72
2018-07-27T06:15:03.835Z,27.69
2018-07-27T06:17:36.721Z,27.66
2018-07-27T06:20:08.810Z,27.76
2018-07-27T06:22:40.273Z,27.76
2018-07-27T06:25:11.369Z,28.12
2018-07-27T06:27:42.891Z,28.17
2018-07-27T06:30:13.408Z,28.14
2018-07-27T06:32:45.799Z,28.27
2018-07-27T06:35:18.091Z,28.26
2018-07-27T06:37:49.597Z,28.38
2018-07-27T06:40:20.619Z,28.82
2018-07-27T06:42:53.860Z,28.92
2018-07-27T06:45:26.475Z,28.87
2018-07-27T06:50:35.241Z,28.87
2018-07-27T06:53:09.716Z,29.00
2018-07-27T06:55:43.920Z,29.08
2018-07-27T06:58:15.719Z,29.29
2018-07-27T07:00:45.880Z,29.06
2018-07-27T07:03:17.964Z,29.20
2018-07-27T07:05:52.219Z,29.40
2018-07-27T07:08:24.736Z,29.47
2018-07-27T07:10:57.114Z,29.44
2018-07-27T07:13:28.472Z,29.45
2018-07-27T07:16:00.965Z,29.47
2018-07-27T07:18:33.523Z,29.67
2018-07-27T07:21:05.370Z,29.74
2018-07-27T07:23:35.934Z,30.09
2018-07-27T07:26:06.501Z,30.12
2018-07-27T07:28:39.856Z,30.48
2018-07-27T07:31:13.984Z,30.60
2018-07-27T07:33:44.561Z,30.71
2018-07-27T07:36:17.942Z,30.76
2018-07-27T07:38:49.762Z,30.66
2018-07-27T07:41:22.639Z,30.75
2018-07-27T07:43:53.105Z,30.71
2018-07-27T07:46:24.921Z,30.64
2018-07-27T07:49:03.035Z,30.68
2018-07-27T07:51:35.568Z,30.70
2018-07-27T07:54:07.962Z,31.00
2018-07-27T07:56:40.149Z,31.06
2018-07-27T07:59:11.777Z,31.26
2018-07-27T08:01:42.205Z,31.50
2018-07-27T08:04:14.871Z,31.50
2018-07-27T08:06:46.497Z,31.25
2018-07-27T08:09:16.248Z,31.20
2018-07-27T08:11:46.212Z,31.19
2018-07-27T08:14:15.571Z,31.41
2018-07-27T08:16:45.273Z,31.44
2018-07-27T08:19:14.992Z,31.63
2018-07-27T08:21:44.692Z,31.89
2018-07-27T08:24:14.344Z,31.82
2018-07-27T08:26:46.480Z,31.95
2018-07-27T08:29:17.691Z,31.70
2018-07-27T08:31:48.581Z,31.60
2018-07-27T08:34:19.188Z,31.32
2018-07-27T08:36:49.293Z,31.75
2018-07-27T08:39:20.101Z,31.85
2018-07-27T08:41:50.198Z,31.69
2018-07-27T08:44:21.374Z,31.73
2018-07-27T08:46:51.156Z,31.54
2018-07-27T08:49:20.882Z,31.43
2018-07-27T08:51:50.556Z,31.51
2018-07-27T08:54:20.325Z,31.88
2018-07-27T08:56:50.091Z,31.79
2018-07-27T08:59:19.832Z,32.23
2018-07-27T09:01:49.235Z,32.36
2018-07-27T09:04:18.912Z,32.31
2018-07-27T09:06:49.168Z,32.73
2018-07-27T09:09:19.310Z,32.92
2018-07-27T09:11:52.203Z,32.92
2018-07-27T09:14:21.891Z,33.07
2018-07-27T09:16:51.651Z,33.09
2018-07-27T09:19:21.453Z,33.07
2018-07-27T09:21:51.197Z,33.09
2018-07-27T09:24:21.152Z,33.22
2018-07-27T09:26:50.766Z,33.16
2018-07-27T09:29:30.047Z,33.12
2018-07-27T09:31:59.749Z,33.08
2018-07-27T09:34:29.567Z,32.96
2018-07-27T09:36:59.408Z,33.42
2018-07-27T09:39:29.190Z,33.76
2018-07-27T09:44:34.160Z,33.92
2018-07-27T09:47:04.015Z,33.45
2018-07-27T09:49:33.760Z,33.50
2018-07-27T09:52:03.510Z,33.67
2018-07-27T09:54:33.164Z,33.97
2018-07-27T09:57:03.092Z,34.32
2018-07-27T09:59:33.035Z,34.27
2018-07-27T10:02:02.882Z,34.24
2018-07-27T10:04:32.617Z,33.74
2018-07-27T10:07:02.378Z,33.84
2018-07-27T10:09:32.076Z,34.15
2018-07-27T10:12:01.881Z,34.11
2018-07-27T10:14:32.101Z,34.57
2018-07-27T10:17:01.954Z,34.60
2018-07-27T10:19:31.740Z,34.99
2018-07-27T10:22:01.546Z,35.11
2018-07-27T10:24:31.386Z,34.53
2018-07-27T10:27:01.141Z,33.86
2018-07-27T10:29:30.916Z,33.80
2018-07-27T10:32:00.341Z,34.26
2018-07-27T10:34:30.132Z,34.80
2018-07-27T10:36:59.550Z,35.12
2018-07-27T10:39:29.302Z,35.37
2018-07-27T10:44:34.504Z,34.32
2018-07-27T10:47:04.451Z,33.93
2018-07-27T10:49:34.551Z,34.42
2018-07-27T10:52:04.325Z,34.86
2018-07-27T10:54:34.207Z,35.07
2018-07-27T10:57:04.014Z,35.64
2018-07-27T10:59:33.800Z,35.32
2018-07-27T11:02:03.665Z,34.85
2018-07-27T11:04:34.416Z,34.46
2018-07-27T11:07:04.147Z,33.70
2018-07-27T11:09:35.383Z,32.78
2018-07-27T11:12:05.287Z,31.92
2018-07-27T11:14:35.101Z,31.56
2018-07-27T11:17:04.964Z,31.40
2018-07-27T11:19:34.795Z,31.73
2018-07-27T11:22:04.624Z,32.12
2018-07-27T11:24:34.612Z,32.59
2018-07-27T11:27:04.652Z,32.36
2018-07-27T11:29:34.448Z,31.72
2018-07-27T11:32:04.144Z,31.23
2018-07-27T11:34:33.917Z,31.16
2018-07-27T11:37:03.649Z,30.95
2018-07-27T11:39:33.399Z,31.43
2018-07-27T11:42:03.183Z,31.72
2018-07-27T11:44:32.974Z,31.29
2018-07-27T11:47:03.264Z,31.85
2018-07-27T11:49:33.210Z,32.68
2018-07-27T11:52:04.152Z,33.41
2018-07-27T11:54:35.783Z,33.12
2018-07-27T11:57:06.503Z,32.92
2018-07-27T11:59:36.274Z,33.73
2018-07-27T12:04:41.352Z,33.47
2018-07-27T12:07:12.013Z,33.96
2018-07-27T12:09:43.429Z,34.03
2018-07-27T12:12:13.251Z,34.09
2018-07-27T12:14:43.548Z,34.07
2018-07-27T12:17:13.320Z,34.44
2018-07-27T12:19:43.119Z,34.85
2018-07-27T12:22:12.858Z,34.67
2018-07-27T12:24:42.931Z,34.66
2018-07-27T12:27:12.637Z,34.38
2018-07-27T12:29:42.426Z,34.57
2018-07-27T12:32:12.267Z,35.19
2018-07-27T12:34:41.905Z,35.37
2018-07-27T12:37:11.673Z,35.59
2018-07-27T12:39:41.460Z,35.97
2018-07-27T12:42:11.282Z,36.06
2018-07-27T12:44:41.338Z,35.62
2018-07-27T12:47:12.215Z,35.60
2018-07-27T12:52:39.481Z,35.56
2018-07-27T12:55:09.252Z,35.88
2018-07-27T12:57:38.720Z,36.21
2018-07-27T13:00:09.025Z,36.67
2018-07-27T13:02:38.851Z,37.07
2018-07-27T13:05:08.854Z,37.08
2018-07-27T13:07:38.544Z,36.09
2018-07-27T13:10:08.389Z,35.82
2018-07-27T13:12:38.996Z,36.03
2018-07-27T13:15:09.416Z,36.13
2018-07-27T13:17:39.228Z,36.19
2018-07-27T13:20:08.978Z,36.46
2018-07-27T13:22:39.080Z,36.59
2018-07-27T13:25:08.899Z,36.72
2018-07-27T13:27:40.096Z,36.73
2018-07-27T13:30:11.315Z,36.54
2018-07-27T13:35:16.229Z,35.50
2018-07-27T13:37:45.886Z,35.36
2018-07-27T13:40:15.762Z,35.42
2018-07-27T13:42:45.550Z,36.13
2018-07-27T13:45:15.227Z,36.34
2018-07-27T13:47:45.183Z,36.43
2018-07-27T13:50:14.908Z,36.54
2018-07-27T13:52:46.177Z,36.24
2018-07-27T13:55:16.057Z,36.24
2018-07-27T13:57:46.869Z,36.03
2018-07-27T14:00:17.435Z,36.11
2018-07-27T14:02:47.176Z,36.21
2018-07-27T14:05:17.245Z,35.97
2018-07-27T14:07:49.552Z,35.51
2018-07-27T14:10:20.031Z,35.47
2018-07-27T14:12:50.230Z,35.97
2018-07-27T14:15:20.615Z,35.81
2018-07-27T14:17:50.351Z,35.42
2018-07-27T14:20:20.241Z,35.65
2018-07-27T14:22:49.963Z,35.68
2018-07-27T14:25:19.634Z,35.77
2018-07-27T14:27:49.562Z,35.62
2018-07-27T14:30:19.623Z,35.62
2018-07-27T14:32:49.702Z,35.72
2018-07-27T14:35:19.397Z,35.74
2018-07-27T14:37:49.192Z,35.70
2018-07-27T14:40:18.889Z,35.53
2018-07-27T14:42:49.495Z,35.39
2018-07-27T14:45:19.248Z,34.90
2018-07-27T14:47:50.567Z,35.04
2018-07-27T14:50:20.300Z,34.99
2018-07-27T14:52:51.927Z,34.74
2018-07-27T14:55:21.752Z,35.12
2018-07-27T14:57:53.271Z,34.79
2018-07-27T15:00:23.589Z,34.34
2018-07-27T15:02:53.615Z,34.16
2018-07-27T15:05:23.372Z,34.45
2018-07-27T15:07:53.528Z,34.90
2018-07-27T15:10:23.523Z,35.22
2018-07-27T15:12:54.692Z,34.92
2018-07-27T15:15:24.391Z,34.54
2018-07-27T15:17:53.968Z,34.43
2018-07-27T15:20:23.657Z,34.32
2018-07-27T15:22:53.375Z,33.96
2018-07-27T15:25:23.047Z,33.76
2018-07-27T15:27:52.847Z,34.24
2018-07-27T15:30:22.660Z,34.54
2018-07-27T15:32:52.139Z,34.24
2018-07-27T15:35:22.671Z,34.13
2018-07-27T15:37:52.468Z,34.31
2018-07-27T15:40:22.550Z,34.57
2018-07-27T15:42:52.401Z,34.55
2018-07-27T15:45:23.751Z,34.47
2018-07-27T15:47:56.621Z,34.38
2018-07-27T15:50:26.316Z,34.56
2018-07-27T15:52:56.242Z,34.50
2018-07-27T15:55:26.109Z,34.60
2018-07-27T15:57:55.947Z,34.29
2018-07-27T16:00:25.590Z,34.39
2018-07-27T16:02:55.457Z,34.58
2018-07-27T16:05:25.138Z,34.98
2018-07-27T16:07:54.878Z,34.60
2018-07-27T16:10:24.392Z,34.59
2018-07-27T16:15:29.367Z,34.58
2018-07-27T16:17:59.152Z,34.52
2018-07-27T16:20:29.193Z,34.89
2018-07-27T16:23:00.874Z,35.11
2018-07-27T16:25:31.657Z,34.91
2018-07-27T16:28:01.843Z,34.69
2018-07-27T16:30:31.879Z,34.44
2018-07-27T16:33:02.420Z,34.35
2018-07-27T16:35:32.179Z,34.26
2018-07-27T16:38:02.904Z,34.30
2018-07-27T16:40:32.878Z,34.01
2018-07-27T16:43:02.602Z,33.97
2018-07-27T16:45:32.332Z,33.84
2018-07-27T16:48:03.022Z,34.08
2018-07-27T16:50:34.683Z,34.21
2018-07-27T16:53:04.450Z,33.91
2018-07-27T16:55:34.338Z,33.62
2018-07-27T16:58:04.071Z,33.34
2018-07-27T17:00:33.772Z,33.32
2018-07-27T17:03:03.198Z,33.30
2018-07-27T17:05:32.803Z,33.54
2018-07-27T17:08:02.687Z,33.58
2018-07-27T17:10:32.520Z,33.19
2018-07-27T17:15:37.631Z,33.03
2018-07-27T17:18:07.477Z,33.02
2018-07-27T17:23:13.408Z,32.90
2018-07-27T17:25:43.731Z,32.84
2018-07-27T17:28:15.637Z,32.64
2018-07-27T17:30:45.533Z,32.66
2018-07-27T17:33:15.347Z,32.51
2018-07-27T17:35:45.148Z,32.50
2018-07-27T17:38:15.044Z,32.68
2018-07-27T17:40:44.892Z,32.81
2018-07-27T17:43:14.722Z,32.68
2018-07-27T17:45:44.561Z,32.40
2018-07-27T17:48:14.250Z,32.41
2018-07-27T17:50:44.079Z,32.36
2018-07-27T17:53:13.817Z,32.29
2018-07-27T17:55:43.607Z,32.37
2018-07-27T17:58:13.370Z,32.41
2018-07-27T18:00:43.574Z,32.44
2018-07-27T18:03:13.469Z,32.48
2018-07-27T18:10:54.458Z,32.34
2018-07-27T18:13:24.480Z,32.29
2018-07-27T18:15:54.314Z,32.13
2018-07-27T18:18:24.108Z,32.17
2018-07-27T18:20:53.858Z,31.99
2018-07-27T18:23:23.790Z,31.78
2018-07-27T18:25:53.568Z,31.52
2018-07-27T18:28:23.336Z,31.37
2018-07-27T18:30:53.203Z,31.17
2018-07-27T18:33:22.953Z,30.97
2018-07-27T18:35:52.918Z,30.86
2018-07-27T18:40:58.574Z,30.77
2018-07-27T18:43:28.469Z,30.73
2018-07-27T18:48:33.322Z,30.59
2018-07-27T18:51:02.863Z,30.33
2018-07-27T18:53:33.183Z,30.29
2018-07-27T18:56:03.074Z,30.20
2018-07-27T18:58:32.963Z,30.20
2018-07-27T19:01:02.360Z,30.20
2018-07-27T19:03:32.123Z,30.17
2018-07-27T19:06:02.209Z,30.05
2018-07-27T19:08:31.875Z,29.84
2018-07-27T19:11:01.973Z,29.61
2018-07-27T19:13:32.001Z,29.67
2018-07-27T19:16:01.711Z,29.73
2018-07-27T19:18:31.158Z,29.63
2018-07-27T19:21:01.096Z,29.51
2018-07-27T19:23:31.782Z,29.34
2018-07-27T19:26:01.567Z,29.20
2018-07-27T19:28:31.284Z,28.99
2018-07-27T19:31:01.453Z,28.88
2018-07-27T19:33:31.425Z,28.96
2018-07-27T19:36:01.239Z,29.15
2018-07-27T19:38:31.415Z,28.83
2018-07-27T19:41:01.451Z,28.73
2018-07-27T19:43:31.230Z,28.55
2018-07-27T19:46:01.073Z,28.06
2018-07-27T19:48:30.549Z,27.97
2018-07-27T19:51:00.533Z,28.17
2018-07-27T19:53:30.458Z,28.24
2018-07-27T19:56:01.006Z,27.86
2018-07-27T19:58:30.772Z,27.91
2018-07-27T20:01:00.656Z,27.88
2018-07-27T20:03:30.953Z,27.68
2018-07-27T20:06:01.481Z,27.62
2018-07-27T20:08:31.251Z,27.67
2018-07-27T20:11:00.896Z,27.93
2018-07-27T20:13:30.639Z,27.44
2018-07-27T20:16:00.465Z,27.38
2018-07-27T20:18:30.920Z,27.53
2018-07-27T20:21:00.673Z,27.49
2018-07-27T20:23:30.496Z,27.23
2018-07-27T20:26:00.221Z,27.49
2018-07-27T20:28:30.448Z,27.83
2018-07-27T20:31:00.124Z,27.83
2018-07-27T20:33:29.869Z,27.73
2018-07-27T20:35:59.780Z,27.50
2018-07-27T20:38:29.405Z,27.60
2018-07-27T20:40:59.122Z,27.62
2018-07-27T20:43:29.611Z,27.68
2018-07-27T20:45:59.280Z,27.73
2018-07-27T20:51:04.845Z,27.69
2018-07-27T20:53:34.549Z,27.62
2018-07-27T20:56:04.636Z,27.58
2018-07-27T20:58:34.364Z,27.68
2018-07-27T21:01:05.619Z,27.50
2018-07-27T21:03:35.939Z,27.45
2018-07-27T21:08:40.888Z,27.49
2018-07-27T21:11:10.265Z,27.70
2018-07-27T21:13:40.172Z,27.65
2018-07-27T21:16:09.892Z,27.52
2018-07-27T21:18:39.542Z,27.36
2018-07-27T21:21:09.935Z,27.52
2018-07-27T21:23:39.668Z,27.30
2018-07-27T21:26:09.463Z,27.04
2018-07-27T21:28:39.165Z,26.96
2018-07-27T21:31:09.290Z,27.12
2018-07-27T21:33:38.931Z,26.95
2018-07-27T21:36:08.297Z,26.75
2018-07-27T21:38:37.961Z,26.59
2018-07-27T21:41:07.705Z,26.66
2018-07-27T21:43:37.472Z,26.70
2018-07-27T21:46:07.383Z,26.34
2018-07-27T21:48:37.229Z,26.11
2018-07-27T21:51:07.045Z,26.29
2018-07-27T21:53:36.810Z,26.22
2018-07-27T21:56:06.357Z,26.37
2018-07-27T21:58:36.209Z,26.19
2018-07-27T22:01:06.663Z,26.21
2018-07-27T22:03:36.596Z,25.90
2018-07-27T22:06:06.476Z,26.01
2018-07-27T22:08:36.221Z,25.84
2018-07-27T22:11:05.941Z,25.83
2018-07-27T22:13:35.762Z,25.65
2018-07-27T22:16:05.593Z,25.77
2018-07-27T22:18:35.304Z,26.10
2018-07-27T22:21:05.913Z,26.33
2018-07-27T22:23:35.669Z,26.10
2018-07-27T22:26:05.521Z,25.77
2018-07-27T22:28:34.944Z,25.82
2018-07-27T22:31:05.200Z,25.84
2018-07-27T22:33:34.977Z,25.76
2018-07-27T22:36:04.749Z,25.88
2018-07-27T22:38:34.543Z,26.02
2018-07-27T22:41:04.934Z,26.06
2018-07-27T22:43:34.786Z,26.14
2018-07-27T22:46:04.636Z,26.22
2018-07-27T22:48:36.283Z,25.85
2018-07-27T22:51:06.559Z,25.72
2018-07-27T22:53:36.309Z,25.67
2018-07-27T22:56:06.046Z,25.63
2018-07-27T22:58:35.635Z,25.75
2018-07-27T23:01:06.506Z,25.87
2018-07-27T23:03:36.148Z,25.69
2018-07-27T23:06:06.041Z,25.46
2018-07-27T23:08:36.008Z,25.40
2018-07-27T23:11:06.347Z,24.97
2018-07-27T23:13:36.449Z,25.24
2018-07-27T23:16:06.230Z,25.64
2018-07-27T23:18:36.072Z,25.62
2018-07-27T23:21:06.767Z,25.33
2018-07-27T23:23:36.499Z,25.36
2018-07-27T23:26:06.296Z,25.39
2018-07-27T23:28:36.066Z,25.16
2018-07-27T23:31:06.362Z,25.21
2018-07-27T23:33:36.672Z,25.33
2018-07-27T23:36:06.460Z,25.39
2018-07-27T23:38:36.297Z,25.22
2018-07-27T23:41:07.695Z,25.04
2018-07-27T23:43:37.493Z,25.05
2018-07-27T23:46:06.958Z,24.85
2018-07-27T23:48:36.760Z,24.50
2018-07-27T23:51:07.938Z,24.80
2018-07-27T23:53:37.635Z,24.87
2018-07-27T23:56:07.770Z,24.79
2018-07-27T23:58:38.247Z,25.04
